Time;durP1;ratioP1;P1;durP2;ratioP2;P2;SDS_P1;SDS_P2;PMS_P1;PMS_P2;Temp;Humidity;BMP_temperature;BMP_pressure;BME280_temperature;BME280_humidity;BME280_pressure;Samples;Min_cycle;Max_cycle;Signal;HPM_P1;HPM_P2
2023/06/16 00:01:00;;;;;;;10.05;9.00;;;13.10;99.90;;;;;;4898464;29;20488;-78
2023/06/16 00:03:49;;;;;;;9.30;8.40;;;13.00;99.90;;;;;;4881853;29;20464;-78
2023/06/16 00:06:19;;;;;;;8.85;7.70;;;13.00;99.90;;;;;;4897971;29;20041;-79
2023/06/16 00:09:00;;;;;;;8.82;7.55;;;12.90;99.90;;;;;;4910583;29;20048;-77
2023/06/16 00:11:29;;;;;;;10.07;7.20;;;12.80;99.90;;;;;;4912570;29;20057;-79
2023/06/16 00:14:10;;;;;;;11.45;8.25;;;12.80;99.90;;;;;;4912887;29;20028;-77
2023/06/16 00:16:43;;;;;;;9.20;8.02;;;12.80;99.90;;;;;;4897051;29;20040;-78
2023/06/16 00:19:29;;;;;;;10.18;9.23;;;12.70;99.90;;;;;;4914126;29;20044;-78
2023/06/16 00:22:18;;;;;;;10.18;8.88;;;12.70;99.90;;;;;;4898271;29;20443;-77
2023/06/16 00:24:55;;;;;;;9.25;8.30;;;12.60;99.90;;;;;;4899414;29;20040;-77
2023/06/16 00:27:32;;;;;;;11.73;8.70;;;12.50;99.90;;;;;;4899209;29;20048;-78
2023/06/16 00:30:27;;;;;;;9.00;8.10;;;12.50;99.90;;;;;;4899982;29;20045;-78
2023/06/16 00:32:53;;;;;;;9.43;8.45;;;12.50;99.90;;;;;;4912761;29;20053;-77
2023/06/16 00:35:25;;;;;;;9.07;8.25;;;12.40;99.90;;;;;;4911739;29;20064;-77
2023/06/16 00:37:50;;;;;;;13.07;9.00;;;12.40;99.90;;;;;;4901833;29;20065;-79
2023/06/16 00:40:22;;;;;;;9.57;8.68;;;12.40;99.90;;;;;;4894970;29;20044;-78
2023/06/16 00:42:58;;;;;;;9.90;8.02;;;12.30;99.90;;;;;;4910481;29;20051;-77
2023/06/16 00:45:24;;;;;;;10.00;8.10;;;12.20;99.90;;;;;;4895761;29;20048;-77
2023/06/16 00:48:18;;;;;;;8.65;7.70;;;12.20;99.90;;;;;;4912572;29;20040;-77
2023/06/16 00:50:57;;;;;;;9.07;7.75;;;12.10;99.90;;;;;;4893259;29;20060;-78
2023/06/16 00:53:31;;;;;;;9.00;8.10;;;12.20;99.90;;;;;;4913838;29;20048;-78
2023/06/16 00:56:03;;;;;;;9.30;8.05;;;12.10;99.90;;;;;;4897771;29;20289;-77
2023/06/16 00:58:36;;;;;;;9.38;8.52;;;12.00;99.90;;;;;;4897920;29;20080;-78
2023/06/16 01:01:14;;;;;;;9.05;8.23;;;12.00;99.90;;;;;;4912582;29;20075;-77
2023/06/16 01:03:41;;;;;;;9.10;8.20;;;12.00;99.90;;;;;;4910748;29;20052;-77
2023/06/16 01:06:52;;;;;;;9.40;8.55;;;11.90;99.90;;;;;;4910911;29;20040;-78
2023/06/16 01:09:32;;;;;;;9.95;8.73;;;11.90;99.90;;;;;;4893354;29;20052;-78
2023/06/16 01:12:53;;;;;;;10.15;8.60;;;11.90;99.90;;;;;;4895810;29;20041;-78
2023/06/16 01:15:28;;;;;;;9.45;8.50;;;11.80;99.90;;;;;;4894209;29;20044;-77
2023/06/16 01:18:10;;;;;;;9.75;8.80;;;11.80;99.90;;;;;;4888022;29;20079;-77
2023/06/16 01:21:01;;;;;;;10.27;9.18;;;11.80;99.90;;;;;;4924655;29;20082;-78
2023/06/16 01:23:56;;;;;;;;;;;;;;;;;;;;;
2023/06/16 01:26:26;;;;;;;9.80;8.90;;;11.80;99.90;;;;;;4926103;29;20048;-78
2023/06/16 01:28:53;;;;;;;10.57;9.65;;;11.80;99.90;;;;;;4907230;29;20052;-77
2023/06/16 01:31:29;;;;;;;10.55;9.48;;;11.70;99.90;;;;;;4908074;29;20103;-78
2023/06/16 01:34:08;;;;;;;10.52;9.63;;;11.70;99.90;;;;;;4911041;29;20060;-77
2023/06/16 01:36:41;;;;;;;10.52;9.60;;;11.70;99.90;;;;;;4909148;29;20064;-77
2023/06/16 01:39:18;;;;;;;11.45;10.35;;;11.70;99.90;;;;;;4906847;29;20495;-78
2023/06/16 01:41:51;;;;;;;11.82;10.65;;;11.60;99.90;;;;;;4903995;29;20526;-77
2023/06/16 01:44:18;;;;;;;11.95;10.85;;;11.60;99.90;;;;;;4902929;29;20052;-77
2023/06/16 01:46:54;;;;;;;11.23;10.07;;;11.60;99.90;;;;;;4886214;29;20045;-77
2023/06/16 01:49:20;;;;;;;13.07;10.77;;;11.50;99.90;;;;;;4901650;29;20047;-77
2023/06/16 01:51:51;;;;;;;10.95;9.93;;;11.50;99.90;;;;;;4893971;29;20045;-78
2023/06/16 01:54:28;;;;;;;10.68;9.70;;;11.50;99.90;;;;;;4901346;29;20077;-77
2023/06/16 01:57:04;;;;;;;14.43;11.60;;;11.50;99.90;;;;;;4904070;29;20408;-77
2023/06/16 01:59:33;;;;;;;12.07;10.88;;;11.50;99.90;;;;;;4904700;29;20107;-78
2023/06/16 02:02:22;;;;;;;12.63;11.52;;;11.40;99.90;;;;;;4889436;29;20107;-77
2023/06/16 02:05:01;;;;;;;12.38;11.18;;;11.30;99.90;;;;;;4886860;29;20051;-77
2023/06/16 02:07:36;;;;;;;12.27;11.13;;;11.30;99.90;;;;;;4909223;29;20047;-77
2023/06/16 02:10:05;;;;;;;;;;;11.30;99.90;;;;;;4890502;29;20077;-77
2023/06/16 02:12:35;;;;;;;12.13;11.00;;;11.20;99.90;;;;;;4904068;29;19923;-77
2023/06/16 02:15:09;;;;;;;11.88;10.77;;;11.20;99.90;;;;;;4888447;29;20142;-77
2023/06/16 02:17:35;;;;;;;11.07;10.05;;;11.20;99.90;;;;;;4902852;29;20055;-78
2023/06/16 02:20:06;;;;;;;12.18;11.07;;;11.10;99.90;;;;;;4889752;29;20063;-77
2023/06/16 02:22:34;;;;;;;11.38;10.30;;;11.10;99.90;;;;;;4903077;29;20488;-77
2023/06/16 02:25:10;;;;;;;12.63;11.35;;;11.10;99.90;;;;;;4891270;29;20117;-77
2023/06/16 02:27:40;;;;;;;12.82;11.75;;;11.10;99.90;;;;;;4889994;29;20118;-77
2023/06/16 02:30:23;;;;;;;14.38;12.98;;;11.10;99.90;;;;;;4907490;29;20040;-77
2023/06/16 02:32:57;;;;;;;15.77;14.25;;;11.10;99.90;;;;;;4878726;29;20092;-78
2023/06/16 02:35:26;;;;;;;12.55;11.55;;;11.10;99.90;;;;;;4921747;29;20084;-79
2023/06/16 02:38:00;;;;;;;15.20;13.93;;;11.10;99.90;;;;;;4886520;29;20158;-78
2023/06/16 02:40:27;;;;;;;14.00;12.80;;;11.10;99.90;;;;;;4905628;29;20157;-77
2023/06/16 02:42:54;;;;;;;13.90;12.73;;;11.10;99.90;;;;;;4886035;29;20542;-78
2023/06/16 02:45:20;;;;;;;15.05;13.65;;;11.10;99.90;;;;;;4888018;29;20067;-77
2023/06/16 02:47:59;;;;;;;13.13;11.88;;;11.20;99.90;;;;;;4889495;29;20073;-78
2023/06/16 02:50:36;;;;;;;12.85;11.68;;;11.20;99.90;;;;;;4905540;29;20492;-77
2023/06/16 02:53:02;;;;;;;15.43;13.95;;;11.10;99.90;;;;;;4891194;29;20083;-78
2023/06/16 02:55:31;;;;;;;13.98;12.70;;;11.20;99.90;;;;;;4883223;29;20048;-78
2023/06/16 02:57:57;;;;;;;15.25;13.93;;;11.10;99.90;;;;;;4889446;29;20057;-77
2023/06/16 03:00:23;;;;;;;13.80;12.52;;;11.10;99.90;;;;;;4905897;29;20086;-77
2023/06/16 03:02:49;;;;;;;15.30;14.05;;;11.10;99.90;;;;;;4903817;29;20044;-77
2023/06/16 03:05:18;;;;;;;15.90;14.43;;;11.00;99.90;;;;;;4904959;29;20056;-78
2023/06/16 03:07:46;;;;;;;17.92;16.33;;;11.10;99.90;;;;;;4904864;29;20041;-77
2023/06/16 03:10:15;;;;;;;17.52;16.02;;;11.10;99.90;;;;;;4889219;29;20045;-77
2023/06/16 03:12:41;;;;;;;17.77;16.23;;;11.10;99.90;;;;;;4896945;29;20040;-77
2023/06/16 03:15:10;;;;;;;16.83;15.43;;;11.10;99.90;;;;;;4904137;29;20064;-77
2023/06/16 03:17:36;;;;;;;15.98;14.60;;;11.20;99.90;;;;;;4888782;29;20051;-79
2023/06/16 03:20:04;;;;;;;18.35;15.07;;;11.20;99.90;;;;;;4907848;29;20044;-79
2023/06/16 03:22:32;;;;;;;17.92;16.52;;;11.20;99.90;;;;;;4878050;29;20048;-80
2023/06/16 03:25:04;;;;;;;17.10;15.60;;;11.20;99.90;;;;;;4894096;29;20063;-80
2023/06/16 03:27:30;;;;;;;19.77;18.00;;;11.20;99.90;;;;;;4892580;29;20142;-80
2023/06/16 03:29:59;;;;;;;19.42;17.70;;;11.20;99.90;;;;;;4895976;29;20076;-80
2023/06/16 03:32:30;;;;;;;19.52;17.88;;;11.20;99.90;;;;;;4894723;29;20037;-79
2023/06/16 03:34:56;;;;;;;18.88;17.20;;;11.20;99.90;;;;;;4897926;29;20108;-80
2023/06/16 03:37:22;;;;;;;18.92;17.38;;;11.30;99.90;;;;;;4893178;29;20101;-80
2023/06/16 03:40:05;;;;;;;21.15;19.42;;;11.30;99.90;;;;;;4912084;29;20033;-80
2023/06/16 03:42:35;;;;;;;20.85;19.05;;;11.30;99.90;;;;;;4897487;29;20044;-79
2023/06/16 03:45:04;;;;;;;20.48;18.83;;;11.30;99.90;;;;;;4897575;29;20043;-81
2023/06/16 03:47:33;;;;;;;23.27;21.38;;;11.40;99.90;;;;;;4897298;29;20097;-80
2023/06/16 03:49:59;;;;;;;24.23;22.10;;;11.50;99.90;;;;;;4898657;29;20056;-79
2023/06/16 03:52:34;;;;;;;22.70;20.92;;;11.60;99.90;;;;;;4910268;29;20041;-79
2023/06/16 03:55:03;;;;;;;21.88;20.08;;;11.70;99.90;;;;;;4912566;29;20076;-80
2023/06/16 03:57:31;;;;;;;22.30;20.50;;;11.70;99.90;;;;;;4893401;29;20119;-79
2023/06/16 04:00:07;;;;;;;22.63;20.73;;;11.80;99.90;;;;;;4913057;29;20064;-80
2023/06/16 04:02:34;;;;;;;21.80;20.10;;;11.90;99.90;;;;;;4911142;29;20048;-79
2023/06/16 04:05:23;;;;;;;21.38;19.42;;;12.00;99.90;;;;;;4898798;29;20142;-79
2023/06/16 04:07:51;;;;;;;19.25;17.75;;;12.10;99.90;;;;;;4908670;29;20040;-79
2023/06/16 04:10:23;;;;;;;22.30;20.50;;;12.10;99.90;;;;;;4903573;29;20131;-81
2023/06/16 04:12:56;;;;;;;23.27;21.58;;;12.20;99.90;;;;;;4896487;29;20052;-80
2023/06/16 04:15:25;;;;;;;21.80;20.10;;;12.30;99.90;;;;;;4896519;29;20043;-80
2023/06/16 04:17:51;;;;;;;22.10;20.40;;;12.40;99.90;;;;;;4890347;29;20068;-80
2023/06/16 04:20:29;;;;;;;21.92;20.13;;;12.40;99.90;;;;;;4908776;29;20044;-81
2023/06/16 04:23:09;;;;;;;22.98;20.98;;;12.50;99.90;;;;;;4897094;29;20047;-80
2023/06/16 04:25:43;;;;;;;21.00;19.38;;;12.70;99.90;;;;;;4897298;29;20123;-80
2023/06/16 04:28:24;;;;;;;20.35;18.60;;;13.30;99.90;;;;;;4913023;29;20041;-77
2023/06/16 04:30:56;;;;;;;18.95;17.35;;;14.00;99.90;;;;;;4899708;29;20041;-78
2023/06/16 04:33:36;;;;;;;17.35;16.00;;;14.70;99.90;;;;;;4905298;29;20507;-78
2023/06/16 04:36:03;;;;;;;16.35;14.85;;;15.40;99.90;;;;;;4888576;29;20047;-78
2023/06/16 04:38:30;;;;;;;15.70;14.30;;;16.10;99.90;;;;;;4887731;29;20057;-78
2023/06/16 04:41:35;;;;;;;16.20;14.70;;;16.60;99.90;;;;;;4887692;29;20051;-78
2023/06/16 04:44:04;;;;;;;15.35;13.57;;;17.20;99.90;;;;;;4895165;29;20067;-78
2023/06/16 04:46:30;;;;;;;14.18;12.85;;;17.80;99.90;;;;;;4886114;29;20068;-78
2023/06/16 04:49:03;;;;;;;14.18;12.98;;;18.30;99.90;;;;;;4905283;29;20048;-78
2023/06/16 04:51:30;;;;;;;13.80;12.65;;;18.60;99.90;;;;;;4905760;29;20053;-78
2023/06/16 04:54:18;;;;;;;13.65;12.43;;;19.00;99.90;;;;;;4907721;29;20076;-78
2023/06/16 04:56:45;;;;;;;12.85;11.75;;;19.30;99.90;;;;;;4873553;29;20108;-78
2023/06/16 04:59:21;;;;;;;11.90;10.90;;;19.70;99.90;;;;;;4887925;29;20049;-78
2023/06/16 05:02:05;;;;;;;12.52;11.45;;;20.10;99.90;;;;;;4916590;29;20053;-78
2023/06/16 05:04:31;;;;;;;13.25;11.98;;;20.40;99.90;;;;;;4888672;29;20057;-79
2023/06/16 05:07:03;;;;;;;13.90;12.50;;;20.60;99.90;;;;;;4874996;29;20457;-78
2023/06/16 05:09:32;;;;;;;12.43;11.35;;;20.90;99.90;;;;;;4903241;29;20055;-78
2023/06/16 05:12:03;;;;;;;11.82;10.82;;;21.20;99.90;;;;;;4902595;29;20045;-78
2023/06/16 05:14:36;;;;;;;12.68;11.40;;;21.50;99.90;;;;;;4889426;29;20052;-78
2023/06/16 05:17:06;;;;;;;12.30;11.27;;;21.90;99.90;;;;;;4891323;29;20052;-79
2023/06/16 05:19:48;;;;;;;12.93;11.80;;;22.20;99.90;;;;;;4892498;29;20091;-78
2023/06/16 05:22:23;;;;;;;13.02;11.93;;;22.50;99.90;;;;;;4923491;29;20047;-79
2023/06/16 05:24:59;;;;;;;12.50;11.50;;;22.90;98.30;;;;;;4908435;29;20057;-78
2023/06/16 05:27:28;;;;;;;14.55;13.07;;;23.20;96.40;;;;;;4878730;29;20076;-78
2023/06/16 05:29:59;;;;;;;13.18;12.07;;;23.50;91.70;;;;;;4906767;29;20048;-78
2023/06/16 05:32:28;;;;;;;13.43;12.27;;;23.60;86.00;;;;;;4896531;29;20045;-78
2023/06/16 05:34:59;;;;;;;13.48;12.38;;;23.80;82.70;;;;;;4904665;29;20036;-80
2023/06/16 05:37:34;;;;;;;12.52;11.52;;;24.10;81.10;;;;;;4905933;29;20108;-79
2023/06/16 05:40:05;;;;;;;12.57;11.63;;;24.30;78.10;;;;;;4904884;29;20160;-80
2023/06/16 05:42:41;;;;;;;12.38;11.38;;;24.50;75.70;;;;;;4901926;29;20040;-79
2023/06/16 05:45:19;;;;;;;12.93;11.93;;;24.70;74.60;;;;;;4908663;29;20189;-79
2023/06/16 05:47:45;;;;;;;13.55;12.45;;;24.70;72.60;;;;;;4893247;29;20316;-79
2023/06/16 05:50:11;;;;;;;12.63;11.52;;;24.70;71.90;;;;;;4903873;29;20064;-79
2023/06/16 05:52:40;;;;;;;14.10;12.88;;;24.80;72.00;;;;;;4895549;29;20144;-79
2023/06/16 05:55:08;;;;;;;13.35;12.25;;;24.90;70.70;;;;;;4885452;29;20049;-79
2023/06/16 05:57:34;;;;;;;14.98;13.60;;;24.80;70.10;;;;;;4905743;29;20041;-78
2023/06/16 06:00:04;;;;;;;14.38;13.13;;;24.60;69.80;;;;;;4874801;29;20115;-78
2023/06/16 06:02:32;;;;;;;14.18;12.98;;;24.30;70.20;;;;;;4872999;29;20056;-78
2023/06/16 06:05:09;;;;;;;14.48;13.38;;;23.70;72.80;;;;;;4884048;29;20037;-78
2023/06/16 06:07:35;;;;;;;15.35;14.00;;;22.90;78.00;;;;;;4885264;29;20049;-80
2023/06/16 06:10:11;;;;;;;16.45;14.98;;;22.30;94.00;;;;;;4881150;29;20044;-80
2023/06/16 06:12:37;;;;;;;16.55;15.02;;;21.70;99.90;;;;;;4910039;29;20037;-79
2023/06/16 06:15:12;;;;;;;17.48;15.98;;;21.20;99.90;;;;;;4897072;29;20448;-79
2023/06/16 06:17:50;;;;;;;17.92;16.42;;;20.80;99.90;;;;;;4895626;29;20048;-80
2023/06/16 06:20:19;;;;;;;17.45;16.13;;;20.50;99.90;;;;;;4877676;29;20040;-80
2023/06/16 06:22:46;;;;;;;17.23;15.73;;;20.20;99.90;;;;;;4878375;29;20515;-80
2023/06/16 06:25:14;;;;;;;17.40;16.02;;;19.90;99.90;;;;;;4893882;29;20091;-80
2023/06/16 06:27:40;;;;;;;17.25;15.82;;;19.80;99.90;;;;;;4881072;29;20033;-81
2023/06/16 06:30:09;;;;;;;18.20;16.80;;;19.60;99.90;;;;;;4878963;29;20118;-81
2023/06/16 06:32:38;;;;;;;16.58;15.25;;;19.50;99.90;;;;;;4879364;29;20037;-81
2023/06/16 06:41:40;;;;;;;16.38;14.98;;;19.30;99.90;;;;;;5010807;23;20055;-80
2023/06/16 06:44:06;;;;;;;16.23;15.02;;;19.30;99.90;;;;;;4880690;29;20100;-79
2023/06/16 06:46:33;;;;;;;15.68;14.38;;;19.10;99.90;;;;;;4883063;29;20106;-79
2023/06/16 06:48:59;;;;;;;15.65;14.15;;;19.20;99.90;;;;;;4882535;29;20043;-79
2023/06/16 06:51:25;;;;;;;16.55;15.25;;;19.20;99.90;;;;;;4899606;29;20542;-79
2023/06/16 06:53:52;;;;;;;15.07;13.88;;;19.20;99.90;;;;;;4885016;29;20072;-79
2023/06/16 06:56:18;;;;;;;13.98;12.77;;;19.30;99.90;;;;;;4900413;29;20052;-79
2023/06/16 06:58:46;;;;;;;13.23;12.13;;;19.30;99.90;;;;;;4883758;29;20040;-80
2023/06/16 07:01:12;;;;;;;12.65;11.65;;;19.30;99.90;;;;;;4885025;29;20103;-79
2023/06/16 07:03:37;;;;;;;12.25;11.15;;;19.40;99.90;;;;;;4882771;29;20044;-79
2023/06/16 07:06:03;;;;;;;12.38;11.30;;;19.40;99.90;;;;;;4880645;29;20202;-79
2023/06/16 07:08:34;;;;;;;12.73;11.73;;;19.50;99.90;;;;;;4878407;29;20055;-76
2023/06/16 07:11:41;;;;;;;;;;;;;;;;;;;;;
2023/06/16 07:14:13;;;;;;;11.73;10.52;;;19.50;99.90;;;;;;4896546;29;20056;-78
2023/06/16 07:16:46;;;;;;;11.43;10.32;;;19.60;99.90;;;;;;4881583;29;20055;-78
2023/06/16 07:20:02;;;;;;;11.73;10.50;;;19.70;99.90;;;;;;4898340;29;20059;-78
2023/06/16 07:22:30;;;;;;;9.80;8.95;;;19.80;99.90;;;;;;4884737;29;20108;-78
2023/06/16 07:25:05;;;;;;;11.98;10.90;;;19.80;99.90;;;;;;4886656;29;20078;-78
2023/06/16 07:27:33;;;;;;;10.60;9.50;;;19.90;99.90;;;;;;4884929;29;20075;-78
2023/06/16 07:30:11;;;;;;;9.15;8.25;;;20.00;99.90;;;;;;4885067;29;20056;-78
2023/06/16 07:32:42;;;;;;;8.10;7.40;;;20.10;99.90;;;;;;4883419;29;20048;-78
2023/06/16 07:35:19;;;;;;;8.73;8.00;;;20.30;99.90;;;;;;4878996;29;20063;-78
2023/06/16 07:37:56;;;;;;;8.15;7.35;;;20.40;99.90;;;;;;4884448;29;20130;-78
2023/06/16 07:40:38;;;;;;;8.30;5.90;;;20.70;99.90;;;;;;4884028;29;20040;-78
2023/06/16 07:43:15;;;;;;;6.25;5.65;;;20.90;99.90;;;;;;4883311;29;20099;-78
2023/06/16 07:45:46;;;;;;;7.80;6.18;;;21.30;99.90;;;;;;4899089;29;20048;-78
2023/06/16 07:48:22;;;;;;;6.90;6.03;;;21.80;98.00;;;;;;4884654;29;20523;-78
2023/06/16 07:50:50;;;;;;;6.20;5.60;;;22.60;81.10;;;;;;4884784;29;20419;-78
2023/06/16 07:53:23;;;;;;;5.70;5.03;;;23.30;75.60;;;;;;4884820;29;20036;-79
2023/06/16 07:55:52;;;;;;;5.50;5.07;;;24.00;69.50;;;;;;4884309;29;20056;-79
2023/06/16 07:58:23;;;;;;;5.80;5.28;;;24.60;69.40;;;;;;4883305;29;20036;-79
2023/06/16 08:00:55;;;;;;;4.85;4.30;;;25.40;66.30;;;;;;4877619;29;20059;-79
2023/06/16 08:03:30;;;;;;;4.80;4.32;;;26.00;59.60;;;;;;4884745;29;20044;-79
2023/06/16 08:06:05;;;;;;;6.28;4.15;;;26.40;59.60;;;;;;4884265;29;20499;-79
2023/06/16 08:09:02;;;;;;;4.95;3.63;;;26.90;60.30;;;;;;4884431;29;20052;-79
2023/06/16 08:11:40;;;;;;;4.72;4.03;;;27.60;58.00;;;;;;4884792;29;20028;-79
2023/06/16 08:14:17;;;;;;;4.70;4.20;;;28.10;58.20;;;;;;4884445;29;20047;-79
2023/06/16 08:17:05;;;;;;;5.60;3.97;;;28.70;55.90;;;;;;4882270;29;20052;-80
2023/06/16 08:19:57;;;;;;;4.50;3.80;;;29.20;56.10;;;;;;4885548;29;20111;-81
2023/06/16 08:22:32;;;;;;;4.50;4.10;;;29.70;54.80;;;;;;4881808;29;20055;-76
2023/06/16 08:25:01;;;;;;;5.75;5.22;;;30.10;55.50;;;;;;4883193;29;20047;-77
2023/06/16 08:27:30;;;;;;;5.83;5.33;;;30.50;54.20;;;;;;4884639;29;20537;-77
2023/06/16 08:30:35;;;;;;;;;;;;;;;;;;;;;
2023/06/16 08:33:09;;;;;;;5.03;4.53;;;30.80;49.90;;;;;;4890613;29;20048;-78
2023/06/16 08:35:38;;;;;;;5.53;4.43;;;30.90;51.80;;;;;;4882193;29;20130;-78
2023/06/16 08:38:09;;;;;;;5.05;4.40;;;31.10;50.80;;;;;;4885404;29;20048;-77
2023/06/16 08:40:41;;;;;;;5.45;4.47;;;31.50;50.80;;;;;;4886646;29;20071;-79
2023/06/16 08:43:19;;;;;;;4.88;4.18;;;31.90;49.20;;;;;;4882810;29;20036;-79
2023/06/16 08:45:55;;;;;;;5.53;4.57;;;32.00;50.00;;;;;;4887661;29;20052;-79
2023/06/16 08:48:26;;;;;;;4.75;4.35;;;32.20;49.20;;;;;;4884707;29;20056;-80
2023/06/16 08:51:09;;;;;;;4.78;4.38;;;32.30;50.10;;;;;;4883791;29;20048;-80
2023/06/16 08:53:39;;;;;;;6.55;4.60;;;32.40;49.00;;;;;;4902666;29;20119;-79
2023/06/16 08:56:07;;;;;;;5.43;4.88;;;32.50;48.70;;;;;;4884912;29;20059;-80
2023/06/16 08:58:50;;;;;;;;;;;32.80;48.00;;;;;;4895804;29;20479;-81
2023/06/16 09:01:46;;;;;;;5.55;5.00;;;32.80;48.00;;;;;;4888782;29;19931;-81
2023/06/16 09:04:34;;;;;;;6.60;4.65;;;33.00;47.60;;;;;;4903762;29;20040;-81
2023/06/16 09:07:16;;;;;;;5.30;4.72;;;32.80;45.30;;;;;;4886467;29;20137;-81
2023/06/16 09:09:45;;;;;;;5.45;4.63;;;32.80;46.10;;;;;;4886677;29;20078;-81
2023/06/16 09:12:49;;;;;;;4.68;4.22;;;32.80;45.90;;;;;;4885516;29;20047;-81
2023/06/16 09:15:59;;;;;;;5.07;4.57;;;32.80;46.70;;;;;;4899451;29;20048;-83
2023/06/16 09:18:56;;;;;;;5.25;4.75;;;33.00;45.60;;;;;;4883016;29;20044;-81
2023/06/16 09:29:22;;;;;;;4.28;3.83;;;33.40;45.20;;;;;;4848793;29;20045;-80
2023/06/16 09:32:58;;;;;;;;;;;;;;;;;;;;;
2023/06/16 09:36:10;;;;;;;4.15;3.85;;;33.80;45.50;;;;;;4869803;29;20503;-80
2023/06/16 09:38:56;;;;;;;5.55;4.20;;;34.00;45.10;;;;;;4971452;23;20062;-80
2023/06/16 09:42:00;;;;;;;4.72;3.90;;;34.00;43.80;;;;;;4920350;29;20528;-80
2023/06/16 09:44:50;;;;;;;4.25;3.85;;;34.20;45.20;;;;;;4919883;29;20047;-80
2023/06/16 09:47:59;;;;;;;4.15;3.83;;;33.90;42.90;;;;;;4935830;29;20103;-80
2023/06/16 09:50:38;;;;;;;4.28;3.88;;;33.40;43.20;;;;;;4936417;29;20036;-79
2023/06/16 09:53:21;;;;;;;4.50;4.13;;;32.90;43.10;;;;;;4919527;29;20473;-78
2023/06/16 09:56:05;;;;;;;5.10;3.90;;;32.70;44.60;;;;;;4914487;29;20043;-79
2023/06/16 09:59:05;;;;;;;4.25;3.60;;;32.70;45.30;;;;;;4932253;29;20411;-79
2023/06/16 10:01:57;;;;;;;5.50;4.03;;;33.10;44.10;;;;;;4926520;29;20047;-79
2023/06/16 10:04:57;;;;;;;15.82;4.75;;;33.40;44.10;;;;;;4934329;29;20503;-78
2023/06/16 10:07:33;;;;;;;4.50;4.10;;;33.70;43.50;;;;;;4926258;29;20056;-78
2023/06/16 10:11:02;;;;;;;4.47;4.07;;;33.90;41.80;;;;;;4917118;29;20094;-78
2023/06/16 10:14:01;;;;;;;5.38;3.67;;;33.80;43.30;;;;;;4860246;29;20053;-78
2023/06/16 10:20:14;;;;;;;4.22;3.67;;;34.50;45.00;;;;;;4916298;29;20048;-78
2023/06/16 10:23:36;;;;;;;5.00;3.83;;;34.80;40.10;;;;;;4920165;29;20047;-78
2023/06/16 10:29:46;;;;;;;4.38;3.97;;;33.40;43.30;;;;;;4923523;23;20135;-78
2023/06/16 10:32:47;;;;;;;3.60;3.30;;;33.40;44.10;;;;;;4878399;29;20103;-78
2023/06/16 10:35:37;;;;;;;60.90;6.95;;;33.70;43.20;;;;;;4878617;29;20044;-78
2023/06/16 10:38:45;;;;;;;4.80;3.95;;;33.90;43.50;;;;;;4864298;29;20028;-78
2023/06/16 10:41:50;;;;;;;3.90;3.50;;;34.10;41.90;;;;;;4881387;29;20072;-79
2023/06/16 10:44:52;;;;;;;4.10;3.58;;;34.20;42.30;;;;;;4880167;29;20084;-80
2023/06/16 10:47:35;;;;;;;3.65;3.08;;;34.30;41.30;;;;;;4865860;29;20381;-79
2023/06/16 10:50:37;;;;;;;5.15;3.17;;;34.00;40.30;;;;;;4873604;29;20135;-78
2023/06/16 10:53:19;;;;;;;6.30;3.50;;;33.90;40.70;;;;;;4863160;29;20128;-80
2023/06/16 10:56:10;;;;;;;3.70;3.40;;;33.90;40.00;;;;;;4862466;29;20408;-79
2023/06/16 11:08:35;;;;;;;5.40;3.90;;;33.10;38.50;;;;;;4891058;29;20080;-78
2023/06/16 11:11:36;;;;;;;5.38;3.40;;;32.70;38.70;;;;;;4883062;29;20049;-78
2023/06/16 11:14:12;;;;;;;7.32;3.65;;;32.80;38.60;;;;;;4865233;29;20048;-79
2023/06/16 11:17:13;;;;;;;4.05;3.20;;;32.30;39.70;;;;;;4877113;29;20052;-78
2023/06/16 11:20:09;;;;;;;4.70;3.22;;;31.90;38.70;;;;;;4861347;29;20515;-78
2023/06/16 11:22:45;;;;;;;3.88;3.22;;;31.60;41.20;;;;;;4877836;29;20132;-78
2023/06/16 11:25:38;;;;;;;3.83;3.40;;;32.00;42.40;;;;;;4864900;29;20048;-78
2023/06/16 11:28:23;;;;;;;3.88;3.05;;;32.40;41.00;;;;;;4865187;29;20044;-78
2023/06/16 11:30:55;;;;;;;3.67;2.95;;;32.80;41.60;;;;;;4864494;29;20052;-78
2023/06/16 11:33:28;;;;;;;3.70;2.97;;;33.30;41.10;;;;;;4864611;29;20049;-78
2023/06/16 11:35:59;;;;;;;5.20;3.10;;;33.80;40.10;;;;;;4860587;29;20305;-78
2023/06/16 11:38:33;;;;;;;3.15;2.85;;;34.30;39.20;;;;;;4845739;29;20056;-78
2023/06/16 11:41:42;;;;;;;4.25;2.90;;;34.50;38.30;;;;;;4870021;29;20064;-77
2023/06/16 11:44:34;;;;;;;3.95;3.10;;;34.50;35.80;;;;;;4866403;29;20063;-81
2023/06/16 11:47:30;;;;;;;3.63;3.03;;;33.90;37.20;;;;;;4963463;23;20055;-79
2023/06/16 11:50:33;;;;;;;3.40;2.88;;;33.80;37.80;;;;;;4902644;29;20420;-79
2023/06/16 11:53:14;;;;;;;;;;;33.80;35.90;;;;;;4952126;28;20048;-79
2023/06/16 11:56:04;;;;;;;5.22;3.40;;;33.20;38.60;;;;;;4905560;29;19922;-79
2023/06/16 11:59:12;;;;;;;4.32;3.05;;;33.00;38.60;;;;;;4895181;29;20048;-79
2023/06/16 12:02:15;;;;;;;;;;;;;;;;;;;;;
2023/06/16 12:05:06;;;;;;;5.40;2.97;;;34.10;39.60;;;;;;4899778;29;20037;-79
2023/06/16 12:07:48;;;;;;;4.75;2.83;;;34.70;37.70;;;;;;4884037;29;20525;-78
2023/06/16 12:10:53;;;;;;;4.38;2.60;;;35.10;37.30;;;;;;4899890;29;20051;-79
2023/06/16 12:13:40;;;;;;;5.30;2.88;;;35.10;35.20;;;;;;4885564;29;20051;-81
2023/06/16 12:16:08;;;;;;;3.13;2.80;;;34.60;35.30;;;;;;4917518;29;20040;-79
2023/06/16 12:18:34;;;;;;;3.67;3.10;;;34.20;36.80;;;;;;4918056;29;20067;-79
2023/06/16 12:21:17;;;;;;;4.82;2.67;;;34.30;36.50;;;;;;4881298;29;20149;-79
2023/06/16 12:24:40;;;;;;;9.38;3.08;;;34.30;35.80;;;;;;4887329;29;20514;-78
2023/06/16 12:27:35;;;;;;;4.72;2.83;;;34.40;36.20;;;;;;4877921;29;20053;-79
2023/06/16 12:30:03;;;;;;;4.40;2.60;;;34.40;35.60;;;;;;4913562;29;20495;-80
2023/06/16 12:32:34;;;;;;;4.32;3.00;;;34.50;36.90;;;;;;4917261;29;20111;-78
2023/06/16 12:35:00;;;;;;;4.72;3.00;;;34.50;35.50;;;;;;4917307;29;20043;-78
2023/06/16 12:37:28;;;;;;;5.72;2.83;;;34.20;36.40;;;;;;4916984;29;20051;-78
2023/06/16 12:40:06;;;;;;;3.58;2.88;;;33.90;36.90;;;;;;4917103;29;20048;-78
2023/06/16 12:42:32;;;;;;;5.32;2.85;;;33.60;37.10;;;;;;4916826;29;20068;-78
2023/06/16 12:44:59;;;;;;;3.92;2.85;;;33.70;37.10;;;;;;4933278;29;20036;-78
2023/06/16 12:47:26;;;;;;;4.22;2.90;;;33.70;35.20;;;;;;4901044;29;20044;-78
2023/06/16 12:49:53;;;;;;;3.40;3.10;;;33.20;36.30;;;;;;4917277;29;20040;-78
2023/06/16 12:52:19;;;;;;;3.58;3.00;;;33.10;37.70;;;;;;4885336;29;20044;-78
2023/06/16 12:54:46;;;;;;;6.75;3.22;;;33.50;38.80;;;;;;4901177;29;20059;-78
2023/06/16 12:57:12;;;;;;;5.20;2.70;;;33.90;39.10;;;;;;4901271;29;20380;-78
2023/06/16 12:59:38;;;;;;;3.25;2.88;;;34.30;36.70;;;;;;4887814;29;20043;-79
2023/06/16 13:02:06;;;;;;;3.30;2.60;;;34.40;35.60;;;;;;4927237;29;20518;-79
2023/06/16 13:04:35;;;;;;;3.95;2.80;;;34.50;36.10;;;;;;4906611;29;20044;-78
2023/06/16 13:07:00;;;;;;;3.05;2.70;;;34.30;34.80;;;;;;4936538;29;20054;-78
2023/06/16 13:09:29;;;;;;;5.32;3.08;;;34.00;37.30;;;;;;4936964;29;20048;-78
2023/06/16 13:11:57;;;;;;;4.30;2.83;;;33.90;36.90;;;;;;4920966;29;20044;-77
2023/06/16 13:14:24;;;;;;;3.35;3.05;;;33.90;35.20;;;;;;4937063;29;20047;-78
2023/06/16 13:16:52;;;;;;;4.65;3.00;;;33.50;35.30;;;;;;4923536;29;20044;-79
2023/06/16 13:19:18;;;;;;;4.65;3.10;;;33.30;37.70;;;;;;4902759;29;20072;-78
2023/06/16 13:21:44;;;;;;;5.55;3.33;;;33.60;38.10;;;;;;4901885;29;20076;-79
2023/06/16 13:24:10;;;;;;;4.13;2.90;;;34.00;38.30;;;;;;4900989;29;20495;-77
2023/06/16 13:26:37;;;;;;;4.93;2.85;;;34.40;37.10;;;;;;4917751;29;20171;-78
2023/06/16 13:29:03;;;;;;;4.45;2.80;;;34.80;35.10;;;;;;4901901;29;20044;-77
2023/06/16 13:31:28;;;;;;;3.47;2.63;;;34.80;35.80;;;;;;4901331;29;20067;-78
2023/06/16 13:33:55;;;;;;;4.47;2.97;;;34.70;35.90;;;;;;4901692;29;20047;-78
2023/06/16 13:36:21;;;;;;;4.72;2.95;;;34.70;35.30;;;;;;4933460;29;20492;-78
2023/06/16 13:38:52;;;;;;;4.65;2.72;;;34.10;36.50;;;;;;4932567;29;20052;-78
2023/06/16 13:41:22;;;;;;;3.10;2.80;;;34.00;37.00;;;;;;4917603;29;20456;-78
2023/06/16 13:43:52;;;;;;;5.07;2.92;;;34.20;38.90;;;;;;4917046;29;20402;-77
2023/06/16 13:46:19;;;;;;;4.57;3.10;;;34.50;36.80;;;;;;4916901;29;20048;-78
2023/06/16 13:48:46;;;;;;;3.63;2.65;;;34.80;37.50;;;;;;4901117;29;20044;-78
2023/06/16 13:51:12;;;;;;;3.38;3.08;;;34.80;36.70;;;;;;4901310;29;20507;-78
2023/06/16 13:53:38;;;;;;;3.78;3.00;;;34.90;37.30;;;;;;4901650;29;20104;-78
2023/06/16 13:56:04;;;;;;;3.80;2.92;;;34.90;36.30;;;;;;4900509;29;20047;-79
2023/06/16 13:58:30;;;;;;;5.65;2.88;;;34.70;35.20;;;;;;4900716;29;20472;-77
2023/06/16 14:00:56;;;;;;;3.58;2.70;;;34.40;35.70;;;;;;4908560;29;20090;-78
2023/06/16 14:03:22;;;;;;;3.90;2.90;;;33.90;36.90;;;;;;4900784;29;20059;-77